sensor_id;sensor_type;location;lat;lon;timestamp;pressure;altitude;pressure_sealevel;temperature;humidity
4449;BME280;2237;51.870;6.160;2022-12-10T00:00:42;100716.03;;;0.99;100.00
4449;BME280;2237;51.870;6.160;2022-12-10T00:03:09;100722.00;;;0.98;100.00
4449;BME280;2237;51.870;6.160;2022-12-10T00:05:35;100717.72;;;0.97;100.00
4449;BME280;2237;51.870;6.160;2022-12-10T00:08:02;100712.53;;;0.94;100.00
4449;BME280;2237;51.870;6.160;2022-12-10T00:10:28;100711.72;;;0.95;100.00
4449;BME280;2237;51.870;6.160;2022-12-10T00:12:55;100708.28;;;0.93;100.00
4449;BME280;2237;51.870;6.160;2022-12-10T00:15:21;100710.81;;;0.91;100.00
4449;BME280;2237;51.870;6.160;2022-12-10T00:17:47;100715.06;;;0.89;100.00
4449;BME280;2237;51.870;6.160;2022-12-10T00:20:14;100708.19;;;0.88;100.00
4449;BME280;2237;51.870;6.160;2022-12-10T00:22:40;100705.56;;;0.84;100.00
4449;BME280;2237;51.870;6.160;2022-12-10T00:25:07;100711.53;;;0.84;100.00
4449;BME280;2237;51.870;6.160;2022-12-10T00:27:33;100712.41;;;0.83;100.00
4449;BME280;2237;51.870;6.160;2022-12-10T00:29:59;100707.22;;;0.82;100.00
4449;BME280;2237;51.870;6.160;2022-12-10T00:32:25;100720.91;;;0.81;100.00
4449;BME280;2237;51.870;6.160;2022-12-10T00:34:52;100720.03;;;0.82;100.00
4449;BME280;2237;51.870;6.160;2022-12-10T00:37:18;100712.31;;;0.79;100.00
4449;BME280;2237;51.870;6.160;2022-12-10T00:39:44;100709.75;;;0.79;100.00
4449;BME280;2237;51.870;6.160;2022-12-10T00:42:11;100710.59;;;0.78;100.00
4449;BME280;2237;51.870;6.160;2022-12-10T00:44:37;100714.91;;;0.80;100.00
4449;BME280;2237;51.870;6.160;2022-12-10T00:47:03;100712.31;;;0.79;100.00
4449;BME280;2237;51.870;6.160;2022-12-10T00:49:30;100721.72;;;0.78;100.00
4449;BME280;2237;51.870;6.160;2022-12-10T00:51:56;100717.34;;;0.73;100.00
4449;BME280;2237;51.870;6.160;2022-12-10T00:54:22;100717.34;;;0.71;100.00
4449;BME280;2237;51.870;6.160;2022-12-10T00:56:49;100722.44;;;0.70;100.00
4449;BME280;2237;51.870;6.160;2022-12-10T00:59:15;100724.16;;;0.69;100.00
4449;BME280;2237;51.870;6.160;2022-12-10T01:01:42;100713.78;;;0.63;100.00
4449;BME280;2237;51.870;6.160;2022-12-10T01:04:11;100718.06;;;0.64;100.00
4449;BME280;2237;51.870;6.160;2022-12-10T01:06:49;100733.47;;;0.66;100.00
4449;BME280;2237;51.870;6.160;2022-12-10T01:09:20;100730.03;;;0.64;100.00
4449;BME280;2237;51.870;6.160;2022-12-10T01:11:50;100729.94;;;0.59;100.00
4449;BME280;2237;51.870;6.160;2022-12-10T01:14:20;100727.41;;;0.61;100.00
4449;BME280;2237;51.870;6.160;2022-12-10T01:16:46;100729.94;;;0.59;100.00
4449;BME280;2237;51.870;6.160;2022-12-10T01:19:13;100727.38;;;0.57;100.00
4449;BME280;2237;51.870;6.160;2022-12-10T01:21:39;100742.75;;;0.57;100.00
4449;BME280;2237;51.870;6.160;2022-12-10T01:24:06;100735.88;;;0.56;100.00
4449;BME280;2237;51.870;6.160;2022-12-10T01:26:34;100737.63;;;0.57;100.00
4449;BME280;2237;51.870;6.160;2022-12-10T01:29:01;100743.56;;;0.55;100.00
4449;BME280;2237;51.870;6.160;2022-12-10T01:31:31;100740.91;;;0.50;100.00
4449;BME280;2237;51.870;6.160;2022-12-10T01:33:58;100730.66;;;0.50;100.00
4449;BME280;2237;51.870;6.160;2022-12-10T01:36:28;100739.16;;;0.49;100.00
4449;BME280;2237;51.870;6.160;2022-12-10T01:38:54;100740.84;;;0.46;100.00
4449;BME280;2237;51.870;6.160;2022-12-10T01:41:27;100742.59;;;0.50;100.00
4449;BME280;2237;51.870;6.160;2022-12-10T01:43:57;100750.31;;;0.51;100.00
4449;BME280;2237;51.870;6.160;2022-12-10T01:46:27;100739.16;;;0.49;100.00
4449;BME280;2237;51.870;6.160;2022-12-10T01:48:54;100750.28;;;0.50;100.00
4449;BME280;2237;51.870;6.160;2022-12-10T01:51:23;100753.66;;;0.47;100.00
4449;BME280;2237;51.870;6.160;2022-12-10T01:53:50;100760.47;;;0.45;100.00
4449;BME280;2237;51.870;6.160;2022-12-10T01:56:18;100763.84;;;0.43;100.00
4449;BME280;2237;51.870;6.160;2022-12-10T01:58:45;100761.22;;;0.41;100.00
4449;BME280;2237;51.870;6.160;2022-12-10T02:06:49;100755.13;;;0.33;100.00
4449;BME280;2237;51.870;6.160;2022-12-10T02:09:27;100760.28;;;0.35;100.00
4449;BME280;2237;51.870;6.160;2022-12-10T02:12:09;100755.94;;;0.32;100.00
4449;BME280;2237;51.870;6.160;2022-12-10T02:14:44;100753.31;;;0.28;100.00
4449;BME280;2237;51.870;6.160;2022-12-10T02:17:41;100745.66;;;0.29;100.00
4449;BME280;2237;51.870;6.160;2022-12-10T02:20:22;100753.31;;;0.28;100.00
4449;BME280;2237;51.870;6.160;2022-12-10T02:23:13;100751.63;;;0.30;100.00
4449;BME280;2237;51.870;6.160;2022-12-10T02:25:43;100755.13;;;0.33;100.00
4449;BME280;2237;51.870;6.160;2022-12-10T02:30:50;100751.78;;;0.37;100.00
4449;BME280;2237;51.870;6.160;2022-12-10T02:33:18;100751.09;;;0.46;100.00
4449;BME280;2237;51.870;6.160;2022-12-10T02:35:47;100752.09;;;0.55;100.00
4449;BME280;2237;51.870;6.160;2022-12-10T02:38:24;100753.16;;;0.67;100.00
4449;BME280;2237;51.870;6.160;2022-12-10T02:40:54;100749.81;;;0.74;100.00
4449;BME280;2237;51.870;6.160;2022-12-10T02:43:23;100745.69;;;0.82;100.00
4449;BME280;2237;51.870;6.160;2022-12-10T02:45:54;100743.25;;;0.89;100.00
4449;BME280;2237;51.870;6.160;2022-12-10T02:48:22;100745.09;;;0.98;100.00
4449;BME280;2237;51.870;6.160;2022-12-10T02:50:48;100743.44;;;1.03;100.00
4449;BME280;2237;51.870;6.160;2022-12-10T02:53:15;100744.38;;;1.06;100.00
4449;BME280;2237;51.870;6.160;2022-12-10T03:07:11;100744.50;;;1.17;100.00
4449;BME280;2237;51.870;6.160;2022-12-10T03:09:47;100740.25;;;1.18;100.00
4449;BME280;2237;51.870;6.160;2022-12-10T03:12:41;100727.25;;;1.05;100.00
4449;BME280;2237;51.870;6.160;2022-12-10T03:15:10;100748.75;;;1.15;100.00
4449;BME280;2237;51.870;6.160;2022-12-10T03:17:38;100741.94;;;1.17;100.00
4449;BME280;2237;51.870;6.160;2022-12-10T03:20:08;100734.25;;;1.16;100.00
4449;BME280;2237;51.870;6.160;2022-12-10T03:22:37;100745.38;;;1.16;100.00
4449;BME280;2237;51.870;6.160;2022-12-10T03:25:06;100740.94;;;1.04;100.00
4449;BME280;2237;51.870;6.160;2022-12-10T03:27:34;100742.53;;;0.98;100.00
4449;BME280;2237;51.870;6.160;2022-12-10T03:30:01;100740.63;;;0.86;100.00
4449;BME280;2237;51.870;6.160;2022-12-10T03:32:27;100733.78;;;0.85;100.00
4449;BME280;2237;51.870;6.160;2022-12-10T03:34:57;100744.09;;;0.88;100.00
4449;BME280;2237;51.870;6.160;2022-12-10T03:37:25;100738.19;;;0.92;100.00
4449;BME280;2237;51.870;6.160;2022-12-10T03:39:52;100739.00;;;0.90;100.00
4449;BME280;2237;51.870;6.160;2022-12-10T03:42:19;100744.91;;;0.86;100.00
4449;BME280;2237;51.870;6.160;2022-12-10T03:44:50;100743.06;;;0.79;100.00
4449;BME280;2237;51.870;6.160;2022-12-10T03:47:16;100757.66;;;0.83;100.00
4449;BME280;2237;51.870;6.160;2022-12-10T03:49:44;100749.81;;;0.74;100.00
4449;BME280;2237;51.870;6.160;2022-12-10T03:52:10;100753.16;;;0.67;100.00
4449;BME280;2237;51.870;6.160;2022-12-10T03:54:37;100753.91;;;0.63;100.00
4449;BME280;2237;51.870;6.160;2022-12-10T03:57:03;100751.25;;;0.56;100.00
4449;BME280;2237;51.870;6.160;2022-12-10T03:59:30;100751.25;;;0.56;100.00
4449;BME280;2237;51.870;6.160;2022-12-10T04:01:56;100757.16;;;0.52;100.00
4449;BME280;2237;51.870;6.160;2022-12-10T04:04:22;100759.66;;;0.49;100.00
4449;BME280;2237;51.870;6.160;2022-12-10T04:06:49;100755.41;;;0.48;100.00
4449;BME280;2237;51.870;6.160;2022-12-10T04:09:15;100762.16;;;0.43;100.00
4449;BME280;2237;51.870;6.160;2022-12-10T04:11:42;100755.25;;;0.41;100.00
4449;BME280;2237;51.870;6.160;2022-12-10T04:14:10;100750.13;;;0.39;100.00
4449;BME280;2237;51.870;6.160;2022-12-10T04:16:55;100750.00;;;0.33;100.00
4449;BME280;2237;51.870;6.160;2022-12-10T04:19:23;100762.75;;;0.30;100.00
4449;BME280;2237;51.870;6.160;2022-12-10T04:21:49;100755.00;;;0.26;100.00
4449;BME280;2237;51.870;6.160;2022-12-10T04:24:35;100760.94;;;0.25;100.00
4449;BME280;2237;51.870;6.160;2022-12-10T04:27:29;100760.03;;;0.21;100.00
4449;BME280;2237;51.870;6.160;2022-12-10T04:29:56;100758.25;;;0.17;100.00
4449;BME280;2237;51.870;6.160;2022-12-10T04:32:25;100760.81;;;0.17;100.00
4449;BME280;2237;51.870;6.160;2022-12-10T04:34:52;100756.47;;;0.15;100.00
4449;BME280;2237;51.870;6.160;2022-12-10T04:37:19;100755.66;;;0.14;100.00
4449;BME280;2237;51.870;6.160;2022-12-10T04:39:46;100767.53;;;0.12;100.00
4449;BME280;2237;51.870;6.160;2022-12-10T04:42:13;100764.97;;;0.11;100.00
4449;BME280;2237;51.870;6.160;2022-12-10T04:44:39;100765.81;;;0.11;100.00
4449;BME280;2237;51.870;6.160;2022-12-10T04:47:08;100761.47;;;0.07;100.00
4449;BME280;2237;51.870;6.160;2022-12-10T04:49:35;100769.16;;;0.07;100.00
4449;BME280;2237;51.870;6.160;2022-12-10T04:52:02;100769.16;;;0.07;100.00
4449;BME280;2237;51.870;6.160;2022-12-10T04:54:29;100769.13;;;0.06;100.00
4449;BME280;2237;51.870;6.160;2022-12-10T04:57:01;100773.41;;;0.07;100.00
4449;BME280;2237;51.870;6.160;2022-12-10T04:59:28;100775.94;;;0.05;100.00
4449;BME280;2237;51.870;6.160;2022-12-10T05:01:54;100777.59;;;0.03;100.00
4449;BME280;2237;51.870;6.160;2022-12-10T05:04:21;100782.69;;;0.00;100.00
4449;BME280;2237;51.870;6.160;2022-12-10T05:06:48;100780.13;;;0.00;100.00
4449;BME280;2237;51.870;6.160;2022-12-10T05:09:16;100780.00;;;-0.05;100.00
4449;BME280;2237;51.870;6.160;2022-12-10T05:11:43;100782.56;;;-0.06;100.00
4449;BME280;2237;51.870;6.160;2022-12-10T05:14:11;100780.81;;;-0.07;100.00
4449;BME280;2237;51.870;6.160;2022-12-10T05:16:38;100789.31;;;-0.08;100.00
4449;BME280;2237;51.870;6.160;2022-12-10T05:19:04;100775.66;;;-0.10;100.00
4449;BME280;2237;51.870;6.160;2022-12-10T05:21:31;100778.22;;;-0.09;100.00
4449;BME280;2237;51.870;6.160;2022-12-10T05:24:17;100784.13;;;-0.11;100.00
4449;BME280;2237;51.870;6.160;2022-12-10T05:26:44;100779.88;;;-0.12;100.00
4449;BME280;2237;51.870;6.160;2022-12-10T05:29:12;100779.84;;;-0.14;100.00
4449;BME280;2237;51.870;6.160;2022-12-10T05:31:39;100778.97;;;-0.14;100.00
4449;BME280;2237;51.870;6.160;2022-12-10T05:34:05;100788.31;;;-0.16;100.00
4449;BME280;2237;51.870;6.160;2022-12-10T05:36:34;100777.19;;;-0.18;100.00
4449;BME280;2237;51.870;6.160;2022-12-10T05:39:00;100778.97;;;-0.14;100.00
4449;BME280;2237;51.870;6.160;2022-12-10T05:41:29;100785.06;;;-0.09;100.00
4449;BME280;2237;51.870;6.160;2022-12-10T05:43:57;100779.09;;;-0.08;100.00
4449;BME280;2237;51.870;6.160;2022-12-10T05:46:26;100780.06;;;-0.03;100.00
4449;BME280;2237;51.870;6.160;2022-12-10T05:48:54;100781.03;;;0.04;100.00
4449;BME280;2237;51.870;6.160;2022-12-10T05:51:24;100776.00;;;0.08;100.00
4449;BME280;2237;51.870;6.160;2022-12-10T05:53:52;100777.72;;;0.09;100.00
4449;BME280;2237;51.870;6.160;2022-12-10T05:56:21;100782.00;;;0.10;100.00
4449;BME280;2237;51.870;6.160;2022-12-10T05:58:49;100779.38;;;0.06;100.00
4449;BME280;2237;51.870;6.160;2022-12-10T06:01:21;100784.50;;;0.07;100.00
4449;BME280;2237;51.870;6.160;2022-12-10T06:03:49;100773.31;;;0.02;100.00
4449;BME280;2237;51.870;6.160;2022-12-10T06:06:24;100779.22;;;-0.02;100.00
4449;BME280;2237;51.870;6.160;2022-12-10T06:08:51;100779.16;;;-0.05;100.00
4449;BME280;2237;51.870;6.160;2022-12-10T06:11:18;100787.63;;;-0.09;100.00
4449;BME280;2237;51.870;6.160;2022-12-10T06:13:44;100782.38;;;-0.14;100.00
4449;BME280;2237;51.870;6.160;2022-12-10T06:16:12;100774.03;;;-0.05;100.00
4449;BME280;2237;51.870;6.160;2022-12-10T06:18:40;100788.75;;;0.05;100.00
4449;BME280;2237;51.870;6.160;2022-12-10T06:21:11;100781.06;;;0.05;100.00
4449;BME280;2237;51.870;6.160;2022-12-10T06:23:39;100777.69;;;0.08;100.00
4449;BME280;2237;51.870;6.160;2022-12-10T06:26:07;100784.50;;;0.07;100.00
4449;BME280;2237;51.870;6.160;2022-12-10T06:28:35;100782.06;;;0.13;100.00
4449;BME280;2237;51.870;6.160;2022-12-10T06:31:01;100783.75;;;0.13;100.00
4449;BME280;2237;51.870;6.160;2022-12-10T06:33:28;100779.50;;;0.13;100.00
4449;BME280;2237;51.870;6.160;2022-12-10T06:35:57;100789.81;;;0.16;100.00
4449;BME280;2237;51.870;6.160;2022-12-10T06:38:23;100795.03;;;0.22;100.00
4449;BME280;2237;51.870;6.160;2022-12-10T06:40:50;100797.59;;;0.22;100.00
4449;BME280;2237;51.870;6.160;2022-12-10T06:43:17;100789.75;;;0.13;100.00
4449;BME280;2237;51.870;6.160;2022-12-10T06:45:43;100789.88;;;0.21;100.00
4449;BME280;2237;51.870;6.160;2022-12-10T06:48:09;100793.31;;;0.21;100.00
4449;BME280;2237;51.870;6.160;2022-12-10T06:50:36;100804.34;;;0.19;100.00
4449;BME280;2237;51.870;6.160;2022-12-10T06:53:02;100815.34;;;0.13;100.00
4449;BME280;2237;51.870;6.160;2022-12-10T06:55:29;100810.97;;;0.08;100.00
4449;BME280;2237;51.870;6.160;2022-12-10T06:57:55;100810.25;;;0.15;100.00
4449;BME280;2237;51.870;6.160;2022-12-10T07:00:48;100811.22;;;0.21;100.00
4449;BME280;2237;51.870;6.160;2022-12-10T07:03:14;100817.97;;;0.16;100.00
4449;BME280;2237;51.870;6.160;2022-12-10T07:05:41;100823.16;;;0.21;100.00
4449;BME280;2237;51.870;6.160;2022-12-10T07:08:07;100824.22;;;0.30;100.00
4449;BME280;2237;51.870;6.160;2022-12-10T07:10:33;100823.44;;;0.34;100.00
4449;BME280;2237;51.870;6.160;2022-12-10T07:13:00;100821.84;;;0.39;100.00
4449;BME280;2237;51.870;6.160;2022-12-10T07:15:26;100818.34;;;0.36;100.00
4449;BME280;2237;51.870;6.160;2022-12-10T07:17:54;100820.94;;;0.37;100.00
4449;BME280;2237;51.870;6.160;2022-12-10T07:20:20;100832.03;;;0.38;100.00
4449;BME280;2237;51.870;6.160;2022-12-10T07:22:46;100843.16;;;0.38;100.00
4449;BME280;2237;51.870;6.160;2022-12-10T07:25:13;100844.00;;;0.39;100.00
4449;BME280;2237;51.870;6.160;2022-12-10T07:27:39;100848.25;;;0.37;100.00
4449;BME280;2237;51.870;6.160;2022-12-10T07:30:06;100839.00;;;0.43;100.00
4449;BME280;2237;51.870;6.160;2022-12-10T07:32:33;100847.72;;;0.54;100.00
4449;BME280;2237;51.870;6.160;2022-12-10T07:34:59;100845.94;;;0.50;100.00
4449;BME280;2237;51.870;6.160;2022-12-10T07:37:26;100853.56;;;0.47;100.00
4449;BME280;2237;51.870;6.160;2022-12-10T07:39:52;100853.44;;;0.41;100.00
4449;BME280;2237;51.870;6.160;2022-12-10T07:42:18;100859.53;;;0.46;100.00
4449;BME280;2237;51.870;6.160;2022-12-10T07:44:45;100858.41;;;0.32;100.00
4449;BME280;2237;51.870;6.160;2022-12-10T07:47:14;100853.06;;;0.22;100.00
4449;BME280;2237;51.870;6.160;2022-12-10T07:49:41;100870.31;;;0.30;100.00
4449;BME280;2237;51.870;6.160;2022-12-10T07:52:08;100862.75;;;0.36;100.00
4449;BME280;2237;51.870;6.160;2022-12-10T07:54:34;100861.06;;;0.37;100.00
4449;BME280;2237;51.870;6.160;2022-12-10T07:57:01;100874.00;;;0.44;100.00
4449;BME280;2237;51.870;6.160;2022-12-10T07:59:28;100865.63;;;0.51;100.00
4449;BME280;2237;51.870;6.160;2022-12-10T08:01:54;100865.75;;;0.59;100.00
4449;BME280;2237;51.870;6.160;2022-12-10T08:04:20;100871.78;;;0.63;100.00
4449;BME280;2237;51.870;6.160;2022-12-10T08:06:47;100874.31;;;0.61;100.00
4449;BME280;2237;51.870;6.160;2022-12-10T08:09:13;100880.88;;;0.45;100.00
4449;BME280;2237;51.870;6.160;2022-12-10T08:11:40;100883.38;;;0.44;100.00
4449;BME280;2237;51.870;6.160;2022-12-10T08:14:06;100881.78;;;0.49;100.00
4449;BME280;2237;51.870;6.160;2022-12-10T08:16:33;100881.13;;;0.59;100.00
4449;BME280;2237;51.870;6.160;2022-12-10T08:19:00;100878.56;;;0.59;100.00
4449;BME280;2237;51.870;6.160;2022-12-10T08:21:29;100889.66;;;0.60;100.00
4449;BME280;2237;51.870;6.160;2022-12-10T08:23:57;100888.72;;;0.54;100.00
4449;BME280;2237;51.870;6.160;2022-12-10T08:26:26;100898.19;;;0.58;100.00
4449;BME280;2237;51.870;6.160;2022-12-10T08:28:54;100880.94;;;0.48;100.00
4449;BME280;2237;51.870;6.160;2022-12-10T08:31:21;100894.88;;;0.64;100.00
4449;BME280;2237;51.870;6.160;2022-12-10T08:33:48;100904.53;;;0.77;100.00
4449;BME280;2237;51.870;6.160;2022-12-10T08:36:15;100893.09;;;0.60;100.00
4449;BME280;2237;51.870;6.160;2022-12-10T08:38:43;100913.56;;;0.58;100.00
4449;BME280;2237;51.870;6.160;2022-12-10T08:41:14;100915.34;;;0.63;100.00
4449;BME280;2237;51.870;6.160;2022-12-10T08:43:42;100912.03;;;0.67;100.00
4449;BME280;2237;51.870;6.160;2022-12-10T08:46:09;100917.28;;;0.74;100.00
4449;BME280;2237;51.870;6.160;2022-12-10T08:48:36;100918.28;;;0.82;100.00
4449;BME280;2237;51.870;6.160;2022-12-10T08:51:04;100915.59;;;0.75;100.00
4449;BME280;2237;51.870;6.160;2022-12-10T08:53:31;100925.78;;;0.72;100.00
4449;BME280;2237;51.870;6.160;2022-12-10T08:55:58;100929.22;;;0.74;100.00
4449;BME280;2237;51.870;6.160;2022-12-10T08:58:25;100934.69;;;0.92;100.00
4449;BME280;2237;51.870;6.160;2022-12-10T09:00:51;100920.44;;;1.06;100.00
4449;BME280;2237;51.870;6.160;2022-12-10T09:03:18;100914.63;;;1.16;100.00
4449;BME280;2237;51.870;6.160;2022-12-10T09:05:45;100924.84;;;1.13;100.00
4449;BME280;2237;51.870;6.160;2022-12-10T09:08:11;100923.84;;;1.06;100.00
4449;BME280;2237;51.870;6.160;2022-12-10T09:10:38;100924.75;;;1.08;100.00
4449;BME280;2237;51.870;6.160;2022-12-10T09:13:05;100923.97;;;1.14;100.00
4449;BME280;2237;51.870;6.160;2022-12-10T09:15:32;100923.16;;;1.15;100.00
4449;BME280;2237;51.870;6.160;2022-12-10T09:17:58;100934.06;;;1.05;100.00
4449;BME280;2237;51.870;6.160;2022-12-10T09:20:25;100927.03;;;0.93;100.00
4449;BME280;2237;51.870;6.160;2022-12-10T09:22:51;100934.69;;;0.92;100.00
4449;BME280;2237;51.870;6.160;2022-12-10T09:25:18;100939.88;;;0.95;100.00
4449;BME280;2237;51.870;6.160;2022-12-10T09:27:47;100936.31;;;0.87;100.00
4449;BME280;2237;51.870;6.160;2022-12-10T09:30:14;100940.53;;;0.85;100.00
4449;BME280;2237;51.870;6.160;2022-12-10T09:32:40;100945.00;;;0.95;100.00
4449;BME280;2237;51.870;6.160;2022-12-10T09:35:07;100950.25;;;1.01;100.00
4449;BME280;2237;51.870;6.160;2022-12-10T09:37:33;100939.34;;;1.12;100.00
4449;BME280;2237;51.870;6.160;2022-12-10T09:40:00;100941.22;;;1.21;100.00
4449;BME280;2237;51.870;6.160;2022-12-10T09:42:42;100941.25;;;1.24;100.00
4449;BME280;2237;51.870;6.160;2022-12-10T09:45:22;100942.25;;;1.32;100.00
4449;BME280;2237;51.870;6.160;2022-12-10T09:48:01;100939.69;;;1.32;100.00
4449;BME280;2237;51.870;6.160;2022-12-10T09:50:47;100947.22;;;1.23;100.00
4449;BME280;2237;51.870;6.160;2022-12-10T09:53:17;100932.72;;;1.25;100.00
4449;BME280;2237;51.870;6.160;2022-12-10T09:55:47;100937.13;;;1.34;100.00
4449;BME280;2237;51.870;6.160;2022-12-10T09:58:25;100940.72;;;1.43;100.00
4449;BME280;2237;51.870;6.160;2022-12-10T10:01:03;100946.00;;;1.51;100.00
4449;BME280;2237;51.870;6.160;2022-12-10T10:03:32;100940.88;;;1.51;100.00
4449;BME280;2237;51.870;6.160;2022-12-10T10:06:02;100938.16;;;1.43;100.00
4449;BME280;2237;51.870;6.160;2022-12-10T10:08:42;100941.50;;;1.38;100.00
4449;BME280;2237;51.870;6.160;2022-12-10T10:11:16;100941.59;;;1.44;100.00
4449;BME280;2237;51.870;6.160;2022-12-10T10:13:55;100936.53;;;1.48;100.00
4449;BME280;2237;51.870;6.160;2022-12-10T10:16:42;100940.81;;;1.48;100.00
4449;BME280;2237;51.870;6.160;2022-12-10T10:19:14;100942.63;;;1.53;100.00
4449;BME280;2237;51.870;6.160;2022-12-10T10:21:43;100949.50;;;1.57;100.00
4449;BME280;2237;51.870;6.160;2022-12-10T10:24:16;100947.91;;;1.65;100.00
4449;BME280;2237;51.870;6.160;2022-12-10T10:26:44;100951.38;;;1.67;100.00
4449;BME280;2237;51.870;6.160;2022-12-10T10:29:14;100953.81;;;1.58;100.00
4449;BME280;2237;51.870;6.160;2022-12-10T10:31:43;100957.19;;;1.56;100.00
4449;BME280;2237;51.870;6.160;2022-12-10T10:34:19;100952.97;;;1.59;100.00
4449;BME280;2237;51.870;6.160;2022-12-10T10:36:45;100950.41;;;1.59;100.00
4449;BME280;2237;51.870;6.160;2022-12-10T10:41:42;100957.41;;;1.69;100.00
4449;BME280;2237;51.870;6.160;2022-12-10T10:44:16;100962.78;;;1.85;100.00
4449;BME280;2237;51.870;6.160;2022-12-10T10:46:46;100966.22;;;1.85;100.00
4449;BME280;2237;51.870;6.160;2022-12-10T10:49:33;100956.91;;;1.95;100.00
4449;BME280;2237;51.870;6.160;2022-12-10T10:52:15;100960.25;;;1.88;100.00
4449;BME280;2237;51.870;6.160;2022-12-10T10:54:44;100951.63;;;1.83;100.00
4449;BME280;2237;51.870;6.160;2022-12-10T10:59:55;100943.25;;;1.96;100.00
4449;BME280;2237;51.870;6.160;2022-12-10T11:02:41;100948.50;;;2.05;100.00
4449;BME280;2237;51.870;6.160;2022-12-10T11:07:41;100953.59;;;2.02;100.00
4449;BME280;2237;51.870;6.160;2022-12-10T11:10:23;100951.81;;;1.98;100.00
4449;BME280;2237;51.870;6.160;2022-12-10T11:13:22;100951.78;;;1.95;100.00
4449;BME280;2237;51.870;6.160;2022-12-10T11:15:56;100963.66;;;1.85;100.00
4449;BME280;2237;51.870;6.160;2022-12-10T11:18:31;100949.16;;;1.92;100.00
4449;BME280;2237;51.870;6.160;2022-12-10T11:23:29;100947.50;;;1.94;100.00
4449;BME280;2237;51.870;6.160;2022-12-10T11:28:56;100944.81;;;1.85;100.00
4449;BME280;2237;51.870;6.160;2022-12-10T11:31:42;100937.97;;;1.85;100.00
4449;BME280;2237;51.870;6.160;2022-12-10T11:34:38;100946.50;;;1.83;100.00
4449;BME280;2237;51.870;6.160;2022-12-10T11:43:00;100917.72;;;1.49;100.00
4449;BME280;2237;51.870;6.160;2022-12-10T11:50:53;100934.28;;;1.69;100.00
4449;BME280;2237;51.870;6.160;2022-12-10T11:53:48;100931.94;;;1.83;100.00
4449;BME280;2237;51.870;6.160;2022-12-10T11:56:24;100935.63;;;2.03;100.00
4449;BME280;2237;51.870;6.160;2022-12-10T12:01:49;100934.19;;;2.20;100.00
4449;BME280;2237;51.870;6.160;2022-12-10T12:04:30;100939.03;;;1.99;100.00
4449;BME280;2237;51.870;6.160;2022-12-10T12:12:22;100939.09;;;2.05;100.00
4449;BME280;2237;51.870;6.160;2022-12-10T12:14:57;100936.59;;;2.10;100.00
4449;BME280;2237;51.870;6.160;2022-12-10T12:17:32;100936.69;;;2.16;100.00
4449;BME280;2237;51.870;6.160;2022-12-10T12:20:04;100933.28;;;2.17;100.00
4449;BME280;2237;51.870;6.160;2022-12-10T12:22:43;100933.28;;;2.17;100.00
4449;BME280;2237;51.870;6.160;2022-12-10T12:25:25;100935.03;;;2.19;100.00
4449;BME280;2237;51.870;6.160;2022-12-10T12:28:13;100935.94;;;2.23;100.00
4449;BME280;2237;51.870;6.160;2022-12-10T12:30:46;100930.59;;;2.09;100.00
4449;BME280;2237;51.870;6.160;2022-12-10T12:33:32;100939.28;;;2.17;100.00
4449;BME280;2237;51.870;6.160;2022-12-10T12:36:04;100937.47;;;2.12;100.00
4449;BME280;2237;51.870;6.160;2022-12-10T12:38:44;100940.97;;;2.17;100.00
4449;BME280;2237;51.870;6.160;2022-12-10T12:47:36;100945.06;;;2.03;100.00
4449;BME280;2237;51.870;6.160;2022-12-10T12:50:20;100940.91;;;2.12;100.00
4449;BME280;2237;51.870;6.160;2022-12-10T12:52:53;100937.47;;;2.10;100.00
4449;BME280;2237;51.870;6.160;2022-12-10T12:55:32;100936.28;;;1.86;100.00
4449;BME280;2237;51.870;6.160;2022-12-10T12:58:13;100938.59;;;1.70;100.00
4449;BME280;2237;51.870;6.160;2022-12-10T13:00:46;100930.72;;;1.58;100.00
4449;BME280;2237;51.870;6.160;2022-12-10T13:03:40;100928.28;;;1.69;100.00
4449;BME280;2237;51.870;6.160;2022-12-10T13:06:37;100933.38;;;1.64;100.00
4449;BME280;2237;51.870;6.160;2022-12-10T13:12:15;100936.38;;;1.95;100.00
4449;BME280;2237;51.870;6.160;2022-12-10T13:14:36;100945.06;;;2.03;100.00
4449;BME280;2237;51.870;6.160;2022-12-10T13:28:22;100947.09;;;2.25;100.00
4449;BME280;2237;51.870;6.160;2022-12-10T13:36:33;100952.78;;;2.03;100.00
4449;BME280;2237;51.870;6.160;2022-12-10T13:41:41;100952.66;;;1.95;100.00
4449;BME280;2237;51.870;6.160;2022-12-10T13:44:46;100951.09;;;2.05;100.00
4449;BME280;2237;51.870;6.160;2022-12-10T13:50:12;100959.53;;;1.98;100.00
4449;BME280;2237;51.870;6.160;2022-12-10T13:53:06;100951.78;;;1.93;100.00
4449;BME280;2237;51.870;6.160;2022-12-10T13:55:39;100950.06;;;1.95;100.00
4449;BME280;2237;51.870;6.160;2022-12-10T14:06:32;100963.50;;;1.78;100.00
4449;BME280;2237;51.870;6.160;2022-12-10T14:09:17;100971.28;;;1.82;100.00
4449;BME280;2237;51.870;6.160;2022-12-10T14:11:57;100976.53;;;1.88;100.00
4449;BME280;2237;51.870;6.160;2022-12-10T14:14:42;100967.91;;;1.85;100.00
4449;BME280;2237;51.870;6.160;2022-12-10T14:17:18;100979.81;;;1.80;100.00
4449;BME280;2237;51.870;6.160;2022-12-10T14:19:47;100983.06;;;1.68;100.00
4449;BME280;2237;51.870;6.160;2022-12-10T14:22:18;100974.19;;;1.49;100.00
4449;BME280;2237;51.870;6.160;2022-12-10T14:24:47;100981.94;;;1.51;100.00
4449;BME280;2237;51.870;6.160;2022-12-10T14:27:18;100985.59;;;1.66;100.00
4449;BME280;2237;51.870;6.160;2022-12-10T14:29:49;100985.63;;;1.69;100.00
4449;BME280;2237;51.870;6.160;2022-12-10T14:32:25;100986.41;;;1.62;100.00
4449;BME280;2237;51.870;6.160;2022-12-10T14:34:55;100983.63;;;1.50;100.00
4449;BME280;2237;51.870;6.160;2022-12-10T14:37:28;100981.00;;;1.49;100.00
4449;BME280;2237;51.870;6.160;2022-12-10T14:39:55;100976.78;;;1.51;100.00
4449;BME280;2237;51.870;6.160;2022-12-10T14:42:23;100979.31;;;1.48;100.00
4449;BME280;2237;51.870;6.160;2022-12-10T14:44:56;100998.19;;;1.53;100.00
4449;BME280;2237;51.870;6.160;2022-12-10T14:47:23;100989.50;;;1.45;100.00
4449;BME280;2237;51.870;6.160;2022-12-10T14:49:51;100981.88;;;1.48;100.00
4449;BME280;2237;51.870;6.160;2022-12-10T14:52:40;100991.38;;;1.53;100.00
4449;BME280;2237;51.870;6.160;2022-12-10T14:55:15;100987.94;;;1.54;100.00
4449;BME280;2237;51.870;6.160;2022-12-10T14:57:44;100983.69;;;1.55;100.00
4449;BME280;2237;51.870;6.160;2022-12-10T15:00:16;100989.03;;;1.68;100.00